Time;durP1;ratioP1;P1;durP2;ratioP2;P2;SDS_P1;SDS_P2;PMS_P1;PMS_P2;Temp;Humidity;BMP_temperature;BMP_pressure;BME280_temperature;BME280_humidity;BME280_pressure;Samples;Min_cycle;Max_cycle;Signal;HPM_P1;HPM_P2
2022/09/10 00:00:39;;;;;;;18.20;6.45;;;;;;;13.49;100.00;100663.38;1961720;28;20277;-68
2022/09/10 00:01:37;;;;;;;13.90;5.65;;;;;;;13.49;100.00;100652.88;1961938;28;20395;-70
2022/09/10 00:02:35;;;;;;;14.20;5.65;;;;;;;13.47;100.00;100654.69;1961578;28;20103;-66
2022/09/10 00:03:32;;;;;;;17.70;6.38;;;;;;;13.47;100.00;100659.94;1962036;28;20034;-69
2022/09/10 00:04:29;;;;;;;16.10;6.30;;;;;;;13.52;100.00;100663.19;1969160;28;20029;-69
2022/09/10 00:05:28;;;;;;;14.95;5.97;;;;;;;13.52;100.00;100663.19;1967875;28;20029;-68
2022/09/10 00:06:27;;;;;;;14.25;5.70;;;;;;;13.54;100.00;100661.31;1970015;28;20140;-69
2022/09/10 00:07:25;;;;;;;12.70;6.15;;;;;;;13.54;100.00;100660.47;1970148;28;20056;-70
2022/09/10 00:08:22;;;;;;;14.05;5.85;;;;;;;13.54;100.00;100657.88;1970068;28;20510;-66
2022/09/10 00:09:19;;;;;;;14.85;5.95;;;;;;;13.55;100.00;100657.75;1970173;28;20442;-69
2022/09/10 00:10:17;;;;;;;19.00;6.35;;;;;;;13.57;100.00;100661.13;1961689;28;20030;-70
2022/09/10 00:11:15;;;;;;;16.52;5.65;;;;;;;13.58;100.00;100654.13;1961882;28;20466;-69
2022/09/10 00:12:13;;;;;;;11.77;5.28;;;;;;;13.59;100.00;100653.19;1969266;28;20034;-70
2022/09/10 00:13:13;;;;;;;15.68;6.43;;;;;;;13.61;100.00;100644.28;1970140;28;20045;-69
2022/09/10 00:14:20;;;;;;;11.98;6.10;;;;;;;13.63;100.00;100652.94;1970129;28;20030;-69
2022/09/10 00:15:18;;;;;;;13.25;5.60;;;;;;;13.57;100.00;100655.88;1970101;28;20048;-68
2022/09/10 00:16:20;;;;;;;13.30;5.72;;;;;;;13.57;100.00;100648.03;1970096;28;20113;-69
2022/09/10 00:17:18;;;;;;;11.70;5.72;;;;;;;13.60;100.00;100649.63;1970021;28;20221;-68
2022/09/10 00:18:20;;;;;;;14.25;5.50;;;;;;;13.60;100.00;100639.13;1969970;28;20033;-69
2022/09/10 00:19:18;;;;;;;13.00;5.70;;;;;;;13.61;100.00;100648.69;1970244;28;20052;-69
2022/09/10 00:20:15;;;;;;;13.70;5.00;;;;;;;13.55;100.00;100647.25;1970107;28;20548;-70
2022/09/10 00:21:17;;;;;;;11.85;5.93;;;;;;;13.57;100.00;100648.03;1969944;28;20552;-67
2022/09/10 00:22:15;;;;;;;13.10;5.93;;;;;;;13.52;100.00;100647.47;1969920;28;20033;-68
2022/09/10 00:23:15;;;;;;;12.40;5.15;;;;;;;13.53;100.00;100638.66;1969950;28;20040;-69
2022/09/10 00:24:13;;;;;;;11.23;5.32;;;;;;;13.56;100.00;100638.47;1969985;28;20034;-68
2022/09/10 00:25:10;;;;;;;9.02;5.43;;;;;;;13.52;100.00;100642.22;1969966;28;20539;-69
2022/09/10 00:26:27;;;;;;;10.73;5.43;;;;;;;13.57;100.00;100642.78;1970029;28;20029;-68
2022/09/10 00:27:25;;;;;;;14.50;5.63;;;;;;;13.56;100.00;100643.72;1969914;28;20418;-69
2022/09/10 00:28:26;;;;;;;17.38;5.50;;;;;;;13.52;100.00;100642.22;1969993;28;20029;-67
2022/09/10 00:29:23;;;;;;;16.10;5.63;;;;;;;13.50;100.00;100644.06;1961552;28;20022;-67
2022/09/10 00:30:21;;;;;;;19.00;6.28;;;;;;;13.46;100.00;100650.38;1953917;28;20441;-68
2022/09/10 00:31:20;;;;;;;12.23;5.93;;;;;;;13.53;100.00;100649.13;1960735;28;20448;-68
2022/09/10 00:32:18;;;;;;;17.50;6.70;;;;;;;13.50;100.00;100649.31;1969454;28;20120;-67
2022/09/10 00:33:18;;;;;;;17.90;6.25;;;;;;;13.54;100.00;100650.81;1969861;28;20394;-69
2022/09/10 00:34:16;;;;;;;;;;;;;;;13.46;100.00;100653.00;1970405;28;20037;-68
2022/09/10 00:35:13;;;;;;;9.88;5.55;;;;;;;13.42;100.00;100641.03;1967501;28;20240;-69
2022/09/10 00:36:22;;;;;;;14.52;5.78;;;;;;;13.47;100.00;100649.44;1970072;28;20049;-68
2022/09/10 00:37:20;;;;;;;15.18;5.97;;;;;;;13.43;100.00;100647.94;1969893;28;20034;-69
2022/09/10 00:38:18;;;;;;;16.23;6.35;;;;;;;13.49;100.00;100650.25;1970012;28;20088;-69
2022/09/10 00:39:17;;;;;;;12.40;5.97;;;;;;;13.51;100.00;100645.75;1961495;28;20026;-68
2022/09/10 00:40:15;;;;;;;13.10;5.90;;;;;;;13.39;100.00;100645.50;1961726;28;20119;-69
2022/09/10 00:41:14;;;;;;;14.07;6.13;;;;;;;13.37;100.00;100643.91;1969190;28;20029;-70
2022/09/10 00:42:11;;;;;;;17.60;6.32;;;;;;;13.42;100.00;100651.50;1969915;28;20030;-67
2022/09/10 00:43:20;;;;;;;11.07;5.82;;;;;;;13.44;100.00;100649.66;1961545;28;20026;-68
2022/09/10 00:44:38;;;;;;;15.10;6.32;;;;;;;13.40;100.00;100643.72;1962189;28;20040;-69
2022/09/10 00:45:35;;;;;;;13.98;5.82;;;;;;;13.34;100.00;100639.69;1969865;28;20045;-68
2022/09/10 00:46:48;;;;;;;17.52;7.30;;;;;;;13.37;100.00;100643.91;1969852;28;20030;-69
2022/09/10 00:47:50;;;;;;;13.15;6.10;;;;;;;13.33;100.00;100643.25;1961475;28;20499;-69
2022/09/10 00:48:48;;;;;;;17.17;6.65;;;;;;;13.36;100.00;100643.06;1961661;28;20095;-71
2022/09/10 00:49:56;;;;;;;13.40;6.85;;;;;;;13.38;100.00;100649.06;1969635;28;20381;-69
2022/09/10 00:50:57;;;;;;;14.05;6.45;;;;;;;13.36;100.00;100643.06;1969867;28;20032;-70
2022/09/10 00:51:54;;;;;;;14.27;7.05;;;;;;;13.37;100.00;100639.50;1969785;28;20029;-70
2022/09/10 00:52:56;;;;;;;18.58;6.80;;;;;;;13.35;100.00;100641.38;1969852;28;20396;-68
2022/09/10 00:53:54;;;;;;;11.40;6.38;;;;;;;13.36;100.00;100643.06;1969799;28;20021;-69
2022/09/10 00:54:52;;;;;;;15.77;6.72;;;;;;;13.35;100.00;100640.53;1969749;28;20029;-69
2022/09/10 00:55:55;;;;;;;15.35;6.88;;;;;;;13.42;100.00;100639.25;1969220;28;20409;-69
2022/09/10 00:56:58;;;;;;;13.30;6.85;;;;;;;13.42;100.00;100635.78;1969210;28;20550;-69
2022/09/10 00:58:00;;;;;;;14.20;7.00;;;;;;;13.42;100.00;100646.25;1969857;28;20363;-69
2022/09/10 00:58:58;;;;;;;16.75;6.97;;;;;;;13.39;100.00;100644.66;1969720;28;20381;-70
2022/09/10 01:00:07;;;;;;;22.77;7.22;;;;;;;13.38;100.00;100635.94;1969771;28;20033;-68
2022/09/10 01:01:05;;;;;;;17.92;7.43;;;;;;;13.41;100.00;100644.59;1969618;28;20052;-69
2022/09/10 01:02:03;;;;;;;13.70;7.35;;;;;;;13.41;100.00;100641.97;1969762;28;20389;-68
2022/09/10 01:03:05;;;;;;;13.38;7.53;;;;;;;13.41;100.00;100644.59;1969526;28;20045;-68
2022/09/10 01:04:06;;;;;;;21.00;7.40;;;;;;;13.42;100.00;100646.25;1969713;28;20507;-68
2022/09/10 01:05:08;;;;;;;16.00;6.70;;;;;;;13.41;100.00;100644.59;1967408;28;20478;-69
2022/09/10 01:06:05;;;;;;;17.67;7.43;;;;;;;13.38;100.00;100649.06;1969785;28;20486;-70
2022/09/10 01:07:05;;;;;;;16.55;7.63;;;;;;;13.44;100.00;100649.66;1969653;28;20030;-65
2022/09/10 01:08:03;;;;;;;20.40;7.93;;;;;;;13.44;100.00;100647.03;1969871;28;20032;-69
2022/09/10 01:09:01;;;;;;;18.75;7.07;;;;;;;13.39;100.00;100650.72;1969699;28;20572;-70
2022/09/10 01:10:08;;;;;;;19.42;8.45;;;;;;;13.48;100.00;100648.53;1969872;28;20108;-67
2022/09/10 01:11:22;;;;;;;15.20;7.47;;;;;;;13.49;100.00;100655.50;1961282;28;20513;-68
2022/09/10 01:12:48;;;;;;;19.40;7.72;;;;;;;13.50;100.00;100659.78;1962936;28;20034;-68
2022/09/10 01:14:13;;;;;;;17.17;8.48;;;;;;;13.54;100.00;100656.06;1969648;28;20489;-68
2022/09/10 01:15:35;;;;;;;22.27;7.47;;;;;;;13.53;100.00;100657.00;1969624;28;20104;-68
2022/09/10 01:17:02;;;;;;;18.80;7.80;;;;;;;13.57;100.00;100657.66;1969610;28;20037;-68
2022/09/10 01:18:53;;;;;;;19.20;7.93;;;;;;;13.60;100.00;100660.97;1969710;28;20030;-68
2022/09/10 01:20:44;;;;;;;17.38;8.32;;;;;;;13.59;100.00;100664.50;1969668;28;20026;-68
2022/09/10 01:22:19;;;;;;;14.13;7.85;;;;;;;13.63;100.00;100665.19;1969675;28;20037;-68
2022/09/10 01:23:41;;;;;;;17.67;7.72;;;;;;;13.63;100.00;100663.41;1969465;28;20124;-69
2022/09/10 01:24:55;;;;;;;14.10;6.85;;;;;;;13.69;100.00;100659.56;1969601;28;20057;-67
2022/09/10 01:26:22;;;;;;;22.40;7.78;;;;;;;13.73;100.00;100658.47;1969542;28;20029;-68
2022/09/10 01:27:38;;;;;;;20.63;7.95;;;;;;;13.70;100.00;100661.28;1969574;28;20116;-69
2022/09/10 01:28:47;;;;;;;14.27;7.47;;;;;;;13.78;100.00;100663.44;1969581;28;20049;-66
2022/09/10 01:29:57;;;;;;;16.77;7.22;;;;;;;13.73;100.00;100661.09;1969621;28;20454;-68
2022/09/10 01:31:05;;;;;;;13.32;7.38;;;;;;;13.73;100.00;100660.25;1969613;28;20036;-67
2022/09/10 01:32:25;;;;;;;17.30;8.30;;;;;;;13.73;100.00;100655.84;1968954;28;20116;-67
2022/09/10 01:33:40;;;;;;;13.35;7.38;;;;;;;13.78;100.00;100652.94;1969237;28;20418;-67
2022/09/10 01:35:05;;;;;;;18.77;7.38;;;;;;;13.75;100.00;100658.34;1969655;28;20558;-69
2022/09/10 01:36:22;;;;;;;22.25;8.45;;;;;;;13.79;100.00;100654.63;1969537;28;20481;-67
2022/09/10 01:37:28;;;;;;;10.23;6.97;;;;;;;13.74;100.00;100657.53;1969645;28;20091;-66
2022/09/10 01:38:31;;;;;;;16.65;8.40;;;;;;;13.76;100.00;100655.66;1961160;28;20036;-67
2022/09/10 01:39:29;;;;;;;13.10;7.50;;;;;;;13.77;100.00;100651.25;1961338;28;20398;-68
2022/09/10 01:40:28;;;;;;;16.58;7.50;;;;;;;13.78;100.00;100653.78;1968977;28;20115;-68
2022/09/10 01:41:27;;;;;;;19.67;8.23;;;;;;;13.83;100.00;100650.06;1969634;28;20153;-68
2022/09/10 01:42:26;;;;;;;15.30;7.78;;;;;;;13.78;100.00;100648.53;1969558;28;20034;-68
2022/09/10 01:43:24;;;;;;;15.75;8.63;;;;;;;13.80;100.00;100647.59;1961300;28;20060;-69
2022/09/10 01:44:50;;;;;;;18.52;8.40;;;;;;;13.80;100.00;100655.47;1961225;28;20034;-68
2022/09/10 01:46:19;;;;;;;19.92;8.57;;;;;;;13.78;100.00;100656.41;1969552;28;20043;-67
2022/09/10 01:47:38;;;;;;;17.85;8.68;;;;;;;13.80;100.00;100651.09;1969523;28;20042;-69
2022/09/10 01:48:41;;;;;;;16.75;8.63;;;;;;;13.80;100.00;100656.31;1969509;28;20486;-68
2022/09/10 01:49:52;;;;;;;22.70;8.52;;;;;;;13.82;100.00;100653.63;1969592;28;20402;-69
2022/09/10 01:51:21;;;;;;;;;;;;;;;13.78;100.00;100659.03;1969952;28;20041;-68
2022/09/10 01:52:44;;;;;;;18.27;8.55;;;;;;;13.80;100.00;100652.84;1953200;28;19949;-68
2022/09/10 01:54:03;;;;;;;17.67;8.95;;;;;;;13.82;100.00;100648.38;1969575;28;20394;-67
2022/09/10 01:55:16;;;;;;;18.50;8.45;;;;;;;13.83;100.00;100645.66;1969518;28;20026;-68
2022/09/10 01:56:36;;;;;;;20.92;9.15;;;;;;;13.86;100.00;100649.88;1969547;28;20067;-67
2022/09/10 01:57:57;;;;;;;16.58;8.82;;;;;;;13.85;100.00;100651.63;1969629;28;20040;-68
2022/09/10 01:59:07;;;;;;;19.85;9.30;;;;;;;13.86;100.00;100650.69;1969522;28;20030;-67
2022/09/10 02:00:09;;;;;;;21.38;9.00;;;;;;;13.89;100.00;100649.69;1969426;28;20100;-69
2022/09/10 02:01:43;;;;;;;17.13;9.45;;;;;;;13.92;100.00;100651.28;1969405;28;20025;-68
2022/09/10 02:02:56;;;;;;;26.42;9.88;;;;;;;13.92;100.00;100643.41;1969449;28;20034;-67
2022/09/10 02:04:03;;;;;;;22.83;10.02;;;;;;;13.92;100.00;100639.00;1969567;28;20105;-68
2022/09/10 02:05:05;;;;;;;16.55;8.88;;;;;;;13.91;100.00;100647.81;1967026;28;20034;-67
2022/09/10 02:06:06;;;;;;;21.42;10.68;;;;;;;13.92;100.00;100648.66;1969512;28;20018;-67
2022/09/10 02:07:05;;;;;;;21.52;10.13;;;;;;;13.93;100.00;100639.84;1969405;28;20030;-67
2022/09/10 02:08:14;;;;;;;19.80;10.35;;;;;;;13.92;100.00;100644.25;1969517;28;20053;-70
2022/09/10 02:09:14;;;;;;;21.88;9.90;;;;;;;13.91;100.00;100650.44;1969437;28;20036;-68
2022/09/10 02:10:11;;;;;;;17.85;9.82;;;;;;;13.93;100.00;100639.84;1969533;28;20032;-69
2022/09/10 02:11:13;;;;;;;26.83;10.65;;;;;;;13.94;100.00;100645.00;1969493;28;20113;-69
2022/09/10 02:12:19;;;;;;;25.55;11.32;;;;;;;13.96;100.00;100644.94;1969469;28;20425;-70
2022/09/10 02:13:17;;;;;;;24.20;10.32;;;;;;;13.96;100.00;100639.69;1969475;28;20108;-68
2022/09/10 02:14:16;;;;;;;21.20;10.80;;;;;;;13.97;100.00;100649.22;1961201;28;20022;-67
2022/09/10 02:15:16;;;;;;;23.38;10.30;;;;;;;13.97;100.00;100643.97;1953512;28;20039;-69
2022/09/10 02:16:39;;;;;;;22.63;11.48;;;;;;;13.99;100.00;100647.38;1960803;28;20596;-70
2022/09/10 02:17:39;;;;;;;25.42;11.25;;;;;;;13.97;100.00;100646.59;1964708;28;20076;-68
2022/09/10 02:18:38;;;;;;;19.60;10.30;;;;;;;13.96;100.00;100642.31;1961140;28;20486;-69
2022/09/10 02:19:37;;;;;;;21.52;10.07;;;;;;;13.96;100.00;100637.06;1961201;28;20042;-70
2022/09/10 02:20:35;;;;;;;27.92;11.50;;;;;;;13.98;100.00;100640.41;1969211;28;20377;-69
2022/09/10 02:21:34;;;;;;;21.50;11.80;;;;;;;14.01;100.00;100642.84;1969432;28;20485;-68
2022/09/10 02:22:37;;;;;;;19.90;11.30;;;;;;;14.00;100.00;100638.56;1969478;28;20036;-69
2022/09/10 02:23:45;;;;;;;21.08;11.48;;;;;;;14.00;100.00;100643.81;1969430;28;20036;-71
2022/09/10 02:24:43;;;;;;;21.88;11.88;;;;;;;13.99;100.00;100635.06;1969449;28;20521;-69
2022/09/10 02:25:40;;;;;;;25.25;11.00;;;;;;;13.99;100.00;100635.06;1970657;28;20040;-69
2022/09/10 02:26:42;;;;;;;25.52;12.00;;;;;;;14.00;100.00;100635.94;1970953;28;20113;-70
2022/09/10 02:27:42;;;;;;;27.70;12.63;;;;;;;14.00;100.00;100635.94;1970954;28;20405;-70
2022/09/10 02:28:47;;;;;;;22.98;11.95;;;;;;;14.01;100.00;100632.38;1962533;28;20026;-69
2022/09/10 02:29:45;;;;;;;27.50;11.65;;;;;;;13.99;100.00;100634.25;1962867;28;20030;-72
2022/09/10 02:30:43;;;;;;;22.50;11.88;;;;;;;14.02;100.00;100634.03;1970745;28;20108;-69
2022/09/10 02:31:42;;;;;;;21.80;12.63;;;;;;;14.04;100.00;100633.00;1970776;28;20041;-68
2022/09/10 02:32:40;;;;;;;23.63;11.98;;;;;;;14.05;100.00;100631.25;1970866;28;20394;-68
2022/09/10 02:33:37;;;;;;;25.20;12.00;;;;;;;14.07;100.00;100637.25;1970819;28;20104;-69
2022/09/10 02:34:35;;;;;;;24.75;12.18;;;;;;;14.06;100.00;100635.53;1970848;28;20092;-70
2022/09/10 02:35:33;;;;;;;25.70;13.02;;;;;;;14.07;100.00;100636.41;1967761;28;20421;-70
2022/09/10 02:36:30;;;;;;;22.45;11.52;;;;;;;14.02;100.00;100627.03;1970261;28;20038;-69
2022/09/10 02:37:28;;;;;;;21.05;11.80;;;;;;;14.02;100.00;100629.66;1970805;28;20026;-69
2022/09/10 02:38:28;;;;;;;26.08;12.65;;;;;;;14.02;100.00;100628.78;1970755;28;20029;-69
2022/09/10 02:39:25;;;;;;;22.02;11.93;;;;;;;14.03;100.00;100635.75;1970871;28;20170;-69
2022/09/10 02:40:24;;;;;;;21.23;11.73;;;;;;;14.04;100.00;100627.75;1970813;28;20111;-70
2022/09/10 02:41:23;;;;;;;25.15;11.98;;;;;;;14.03;100.00;100631.31;1970901;28;20076;-69
2022/09/10 02:42:21;;;;;;;23.67;11.75;;;;;;;14.02;100.00;100631.41;1970759;28;20028;-70
2022/09/10 02:43:18;;;;;;;26.38;12.43;;;;;;;14.02;100.00;100634.91;1970826;28;20401;-73
2022/09/10 02:44:16;;;;;;;24.42;12.77;;;;;;;14.03;100.00;100630.50;1970919;28;20053;-72
2022/09/10 02:45:14;;;;;;;24.27;12.00;;;;;;;14.02;100.00;100631.41;1970524;28;20109;-68
2022/09/10 02:46:12;;;;;;;20.15;10.63;;;;;;;13.98;100.00;100629.91;1970820;28;20025;-74
2022/09/10 02:47:09;;;;;;;22.17;13.23;;;;;;;14.00;100.00;100633.31;1970634;28;20493;-71
2022/09/10 02:48:07;;;;;;;26.08;12.70;;;;;;;13.98;100.00;100633.41;1962319;28;20043;-71
2022/09/10 02:49:05;;;;;;;24.50;13.23;;;;;;;13.98;100.00;100633.41;1962406;28;20367;-72
2022/09/10 02:50:02;;;;;;;25.30;13.35;;;;;;;13.98;100.00;100632.53;1969981;28;20417;-71
2022/09/10 02:51:01;;;;;;;25.08;13.27;;;;;;;13.99;100.00;100634.25;1970658;28;20393;-73
2022/09/10 02:52:01;;;;;;;24.95;13.13;;;;;;;13.95;100.00;100633.56;1970710;28;20024;-71
2022/09/10 02:52:59;;;;;;;28.88;12.48;;;;;;;13.96;100.00;100635.25;1970659;28;20532;-73
2022/09/10 02:53:57;;;;;;;27.60;12.82;;;;;;;13.98;100.00;100635.16;1970812;28;20018;-72
2022/09/10 02:54:55;;;;;;;31.95;13.93;;;;;;;13.98;100.00;100628.16;1970593;28;20391;-71
2022/09/10 02:55:53;;;;;;;27.90;13.80;;;;;;;13.97;100.00;100630.88;1970741;28;20029;-75
2022/09/10 02:56:50;;;;;;;20.63;11.88;;;;;;;13.95;100.00;100635.34;1970698;28;20123;-74
2022/09/10 02:57:48;;;;;;;31.83;14.02;;;;;;;13.96;100.00;100637.06;1970611;28;20026;-70
2022/09/10 02:58:45;;;;;;;30.27;13.07;;;;;;;13.96;100.00;100634.44;1970685;28;20048;-70
2022/09/10 02:59:42;;;;;;;32.88;13.93;;;;;;;13.97;100.00;100629.09;1970579;28;20033;-71
2022/09/10 03:00:40;;;;;;;23.70;12.73;;;;;;;13.97;100.00;100638.72;1970476;28;20042;-75
2022/09/10 03:01:38;;;;;;;27.52;12.95;;;;;;;13.95;100.00;100633.56;1969896;28;20398;-70
2022/09/10 03:02:35;;;;;;;36.03;14.65;;;;;;;13.97;100.00;100628.25;1969989;28;20029;-70
2022/09/10 03:03:34;;;;;;;28.23;13.98;;;;;;;13.98;100.00;100632.53;1970538;28;20111;-69
2022/09/10 03:04:31;;;;;;;28.05;13.85;;;;;;;14.00;100.00;100635.94;1970813;28;20040;-69
2022/09/10 03:05:29;;;;;;;29.27;13.88;;;;;;;14.00;100.00;100633.31;1968231;28;20437;-71
2022/09/10 03:06:26;;;;;;;27.08;12.93;;;;;;;13.99;100.00;100629.00;1970650;28;20544;-73
2022/09/10 03:07:24;;;;;;;29.23;14.18;;;;;;;14.01;100.00;100637.59;1969949;28;20091;-71
2022/09/10 03:08:21;;;;;;;27.55;14.32;;;;;;;14.01;100.00;100630.59;1970079;28;20044;-73
2022/09/10 03:09:19;;;;;;;30.50;14.18;;;;;;;14.02;100.00;100631.41;1970579;28;20072;-70
2022/09/10 03:10:17;;;;;;;25.67;14.27;;;;;;;14.03;100.00;100630.50;1970521;28;20017;-75
2022/09/10 03:11:15;;;;;;;26.63;13.05;;;;;;;14.01;100.00;100635.84;1970584;28;20037;-72
2022/09/10 03:12:15;;;;;;;32.05;14.88;;;;;;;14.03;100.00;100631.31;1970390;28;20592;-72
2022/09/10 03:13:12;;;;;;;29.55;14.35;;;;;;;14.03;100.00;100631.31;1970595;28;20037;-73
2022/09/10 03:14:11;;;;;;;29.50;13.77;;;;;;;14.01;100.00;100629.75;1970442;28;20026;-69
2022/09/10 03:15:09;;;;;;;26.25;14.10;;;;;;;14.02;100.00;100628.78;1970529;28;20025;-72
2022/09/10 03:16:08;;;;;;;27.17;14.43;;;;;;;14.00;100.00;100630.69;1970461;28;20032;-72
2022/09/10 03:17:05;;;;;;;24.77;13.85;;;;;;;14.04;100.00;100632.19;1970595;28;20068;-71
2022/09/10 03:18:03;;;;;;;23.63;13.35;;;;;;;14.01;100.00;100642.84;1962166;28;20104;-70
2022/09/10 03:19:00;;;;;;;33.13;14.75;;;;;;;14.06;100.00;100640.78;1962258;28;20105;-71
2022/09/10 03:19:58;;;;;;;29.92;13.93;;;;;;;14.03;100.00;100635.75;1969791;28;20022;-73
2022/09/10 03:21:19;;;;;;;32.83;14.48;;;;;;;14.04;100.00;100637.44;1962202;28;20018;-69
2022/09/10 03:22:16;;;;;;;30.55;14.15;;;;;;;14.06;100.00;100634.72;1964680;28;20026;-70
2022/09/10 03:23:13;;;;;;;31.73;14.07;;;;;;;14.04;100.00;100630.38;1970421;28;20497;-72
2022/09/10 03:24:11;;;;;;;25.42;13.70;;;;;;;14.08;100.00;100633.69;1970503;28;20025;-69
2022/09/10 03:25:08;;;;;;;29.00;14.40;;;;;;;14.07;100.00;100629.38;1970350;28;20061;-72
2022/09/10 03:26:08;;;;;;;23.95;12.90;;;;;;;14.04;100.00;100632.19;1970564;28;20029;-73
2022/09/10 03:27:07;;;;;;;27.60;14.68;;;;;;;14.06;100.00;100632.09;1962107;28;20278;-71
2022/09/10 03:28:04;;;;;;;32.35;14.98;;;;;;;14.06;100.00;100632.09;1962205;28;20026;-71
2022/09/10 03:29:02;;;;;;;38.22;13.75;;;;;;;14.03;100.00;100635.75;1969106;28;20040;-74
2022/09/10 03:29:59;;;;;;;30.98;14.40;;;;;;;14.04;100.00;100633.00;1969925;28;20102;-73
2022/09/10 03:30:56;;;;;;;27.88;13.88;;;;;;;14.06;100.00;100635.53;1970209;28;20026;-75
2022/09/10 03:31:54;;;;;;;32.22;14.88;;;;;;;14.07;100.00;100634.63;1970506;28;20033;-72
2022/09/10 03:32:53;;;;;;;31.58;15.57;;;;;;;14.06;100.00;100635.53;1962078;28;20030;-72
2022/09/10 03:33:50;;;;;;;28.90;15.05;;;;;;;14.07;100.00;100632.00;1962196;28;20019;-73
2022/09/10 03:34:48;;;;;;;31.08;14.95;;;;;;;14.07;100.00;100629.38;1969692;28;20033;-72
2022/09/10 03:35:47;;;;;;;25.40;14.18;;;;;;;14.05;100.00;100628.63;1967878;28;20398;-70
2022/09/10 03:36:46;;;;;;;34.55;15.68;;;;;;;14.05;100.00;100626.00;1970112;28;20033;-71
2022/09/10 03:37:43;;;;;;;31.35;16.40;;;;;;;14.04;100.00;100627.75;1970415;28;20021;-69
2022/09/10 03:38:41;;;;;;;33.25;15.45;;;;;;;14.03;100.00;100630.50;1970369;28;20038;-74
2022/09/10 03:39:38;;;;;;;28.80;15.60;;;;;;;14.04;100.00;100621.69;1970563;28;20034;-73
2022/09/10 03:40:36;;;;;;;30.75;15.93;;;;;;;14.02;100.00;100629.66;1970379;28;20032;-71
2022/09/10 03:41:33;;;;;;;29.77;16.63;;;;;;;14.02;100.00;100628.78;1970245;28;20033;-71
2022/09/10 03:42:31;;;;;;;35.38;17.42;;;;;;;14.03;100.00;100631.31;1970349;28;20026;-73
2022/09/10 03:43:29;;;;;;;35.70;16.02;;;;;;;14.02;100.00;100623.53;1970328;28;20047;-71
2022/09/10 03:44:27;;;;;;;38.42;17.00;;;;;;;14.03;100.00;100630.50;1970331;28;20038;-72
2022/09/10 03:45:25;;;;;;;35.10;17.70;;;;;;;14.02;100.00;100623.53;1970173;28;20026;-69
2022/09/10 03:46:23;;;;;;;33.10;16.95;;;;;;;14.03;100.00;100625.25;1970363;28;20045;-68
2022/09/10 03:47:21;;;;;;;33.10;16.13;;;;;;;14.01;100.00;100629.75;1970299;28;20596;-72
2022/09/10 03:48:20;;;;;;;35.65;17.15;;;;;;;14.03;100.00;100631.31;1970230;28;20075;-70
2022/09/10 03:49:17;;;;;;;33.53;15.38;;;;;;;14.00;100.00;100622.81;1969540;28;20025;-69
2022/09/10 03:50:15;;;;;;;36.55;16.10;;;;;;;14.01;100.00;100619.25;1969762;28;20061;-75
2022/09/10 03:51:14;;;;;;;36.15;17.05;;;;;;;14.02;100.00;100628.78;1970357;28;20527;-72
2022/09/10 03:52:12;;;;;;;37.75;17.98;;;;;;;14.02;100.00;100628.78;1970360;28;20529;-70
2022/09/10 03:53:11;;;;;;;37.72;17.58;;;;;;;14.01;100.00;100627.97;1970273;28;20032;-69
2022/09/10 03:54:08;;;;;;;37.53;18.40;;;;;;;14.02;100.00;100624.41;1970190;28;20022;-70
2022/09/10 03:55:06;;;;;;;36.88;18.30;;;;;;;14.03;100.00;100625.25;1970259;28;20020;-73
2022/09/10 03:56:04;;;;;;;39.65;18.00;;;;;;;14.01;100.00;100622.72;1970210;28;20029;-71
2022/09/10 03:57:01;;;;;;;36.17;16.63;;;;;;;14.01;100.00;100625.34;1970327;28;20466;-71
2022/09/10 03:57:59;;;;;;;30.30;17.00;;;;;;;14.01;100.00;100627.97;1970320;28;20017;-73
2022/09/10 03:58:57;;;;;;;36.65;17.83;;;;;;;14.02;100.00;100623.53;1970302;28;20017;-68
2022/09/10 03:59:55;;;;;;;39.03;17.33;;;;;;;14.01;100.00;100621.88;1970086;28;20075;-69
2022/09/10 04:00:52;;;;;;;41.20;19.20;;;;;;;14.02;100.00;100623.53;1969349;28;20477;-70
2022/09/10 04:01:50;;;;;;;36.28;18.33;;;;;;;14.03;100.00;100630.50;1969545;28;20026;-73
2022/09/10 04:02:47;;;;;;;34.90;19.08;;;;;;;14.00;100.00;100628.88;1970122;28;20580;-70
2022/09/10 04:03:46;;;;;;;42.47;18.05;;;;;;;14.01;100.00;100625.34;1970229;28;20080;-74
2022/09/10 04:04:43;;;;;;;34.55;16.33;;;;;;;14.01;100.00;100624.50;1961846;28;20057;-69
2022/09/10 04:05:44;;;;;;;37.60;18.30;;;;;;;14.03;100.00;100620.00;1959439;28;20125;-72
2022/09/10 04:06:43;;;;;;;40.35;18.33;;;;;;;14.02;100.00;100619.16;1969066;28;20029;-69
2022/09/10 04:07:41;;;;;;;43.08;18.38;;;;;;;14.02;100.00;100621.78;1961808;28;20052;-72
2022/09/10 04:08:39;;;;;;;36.65;17.85;;;;;;;14.02;100.00;100619.16;1961805;28;20149;-72
2022/09/10 04:09:36;;;;;;;36.03;17.63;;;;;;;14.02;100.00;100618.31;1969049;28;20034;-73
2022/09/10 04:10:34;;;;;;;38.80;17.83;;;;;;;14.02;100.00;100618.31;1970081;28;20026;-73
2022/09/10 04:11:32;;;;;;;37.88;19.42;;;;;;;14.04;100.00;100627.75;1970151;28;20030;-72
2022/09/10 04:12:30;;;;;;;40.47;18.35;;;;;;;14.02;100.00;100613.06;1970111;28;20516;-72
2022/09/10 04:13:27;;;;;;;39.45;17.77;;;;;;;14.02;100.00;100618.31;1970240;28;20124;-69
2022/09/10 04:14:25;;;;;;;39.13;18.23;;;;;;;14.02;100.00;100613.06;1970050;28;20034;-71
2022/09/10 04:15:25;;;;;;;37.50;18.40;;;;;;;14.02;100.00;100613.06;1970105;28;20022;-74
2022/09/10 04:16:22;;;;;;;44.17;18.10;;;;;;;14.02;100.00;100613.06;1970055;28;20042;-75
2022/09/10 04:17:20;;;;;;;39.72;18.98;;;;;;;14.02;100.00;100613.06;1970107;28;20067;-67
2022/09/10 04:18:17;;;;;;;33.97;17.92;;;;;;;14.00;100.00;100609.69;1970083;28;20040;-73
2022/09/10 04:19:15;;;;;;;38.05;16.05;;;;;;;14.00;100.00;100609.69;1970288;28;20056;-66
2022/09/10 04:20:12;;;;;;;38.53;18.30;;;;;;;14.00;100.00;100604.44;1970072;28;20042;-75
2022/09/10 04:21:09;;;;;;;37.28;18.38;;;;;;;14.02;100.00;100607.81;1970046;28;20104;-75
2022/09/10 04:22:07;;;;;;;39.05;18.05;;;;;;;14.03;100.00;100609.50;1970221;28;20104;-71
2022/09/10 04:23:04;;;;;;;35.85;17.73;;;;;;;14.00;100.00;100610.53;1970018;28;20049;-72
2022/09/10 04:24:02;;;;;;;34.75;17.67;;;;;;;14.00;100.00;100614.94;1970098;28;20024;-70
2022/09/10 04:24:59;;;;;;;36.33;17.60;;;;;;;13.99;100.00;100610.63;1969841;28;20030;-72
2022/09/10 04:25:56;;;;;;;42.53;18.90;;;;;;;13.99;100.00;100614.09;1970055;28;20024;-68
2022/09/10 04:26:54;;;;;;;40.65;19.25;;;;;;;13.98;100.00;100606.31;1970000;28;20025;-70
2022/09/10 04:27:52;;;;;;;41.30;19.10;;;;;;;13.99;100.00;100602.78;1970052;28;20101;-75
2022/09/10 04:28:49;;;;;;;43.33;19.27;;;;;;;14.00;100.00;100607.06;1970005;28;20034;-70
2022/09/10 04:29:47;;;;;;;44.00;18.13;;;;;;;13.98;100.00;100601.06;1970052;28;20079;-66
2022/09/10 04:30:45;;;;;;;39.13;18.42;;;;;;;13.99;100.00;100608.00;1969925;28;20029;-67
2022/09/10 04:31:45;;;;;;;35.50;18.42;;;;;;;13.99;100.00;100608.00;1969883;28;20060;-73
2022/09/10 04:32:43;;;;;;;38.28;18.88;;;;;;;14.00;100.00;100604.44;1970024;28;20071;-72
2022/09/10 04:33:41;;;;;;;33.60;16.65;;;;;;;14.00;100.00;100609.69;1969923;28;20033;-69
2022/09/10 04:34:38;;;;;;;41.13;19.17;;;;;;;14.01;100.00;100609.59;1969978;28;20037;-74
2022/09/10 04:35:38;;;;;;;40.80;18.98;;;;;;;14.01;100.00;100606.97;1967793;28;20069;-73
2022/09/10 04:36:35;;;;;;;40.50;19.38;;;;;;;14.01;100.00;100603.50;1969911;28;20084;-72
2022/09/10 04:37:33;;;;;;;37.80;18.90;;;;;;;14.00;100.00;100604.44;1969852;28;20385;-73
2022/09/10 04:38:31;;;;;;;36.30;18.27;;;;;;;14.02;100.00;100607.81;1970019;28;20064;-70
2022/09/10 04:39:29;;;;;;;44.78;19.98;;;;;;;14.04;100.00;100600.69;1969911;28;20190;-70